TimeAKST,TemperatureF,Dew PointF,Humidity,Sea Level PressureIn,VisibilityMPH,Wind Direction,Wind SpeedMPH,Gust SpeedMPH,PrecipitationIn,Events,Conditions,WindDirDegrees,DateUTC
12:16 AM,39.2,32.0,75,29.28,10.0,SE,17.3,20.7,N/A,,Mostly Cloudy,140,2013-02-02 09:16:00
12:36 AM,39.2,32.0,75,29.29,10.0,SE,13.8,-,N/A,,Overcast,140,2013-02-02 09:36:00
12:56 AM,39.2,32.0,75,29.28,10.0,SSE,19.6,-,N/A,,Overcast,150,2013-02-02 09:56:00
1:16 AM,39.2,32.0,75,29.28,10.0,SE,18.4,-,N/A,,Overcast,140,2013-02-02 10:16:00
1:36 AM,39.2,32.0,75,29.28,10.0,SE,17.3,25.3,N/A,,Overcast,140,2013-02-02 10:36:00
1:56 AM,39.2,30.2,70,29.28,10.0,SSE,11.5,20.7,N/A,,Mostly Cloudy,150,2013-02-02 10:56:00
2:16 AM,39.2,30.2,70,29.27,10.0,SE,12.7,-,N/A,,Mostly Cloudy,140,2013-02-02 11:16:00
2:36 AM,39.2,30.2,70,29.26,10.0,SE,11.5,-,N/A,,Mostly Cloudy,130,2013-02-02 11:36:00
2:56 AM,39.2,30.2,70,29.26,10.0,SE,11.5,-,N/A,,Mostly Cloudy,130,2013-02-02 11:56:00
3:16 AM,39.2,30.2,70,29.25,10.0,SE,13.8,19.6,N/A,,Scattered Clouds,130,2013-02-02 12:16:00
3:36 AM,39.2,30.2,70,29.25,10.0,ESE,10.4,-,N/A,,Mostly Cloudy,120,2013-02-02 12:36:00
3:56 AM,39.2,30.2,70,29.24,10.0,SE,13.8,-,N/A,,Mostly Cloudy,130,2013-02-02 12:56:00
4:16 AM,39.2,32.0,75,29.22,10.0,SE,19.6,-,N/A,,Partly Cloudy,130,2013-02-02 13:16:00
4:36 AM,41.0,30.2,65,29.22,10.0,SE,17.3,20.7,N/A,,Mostly Cloudy,130,2013-02-02 13:36:00
4:56 AM,39.2,32.0,75,29.21,10.0,SE,13.8,-,N/A,,Mostly Cloudy,140,2013-02-02 13:56:00
5:16 AM,41.0,32.0,70,29.21,10.0,SE,15.0,25.3,N/A,,Mostly Cloudy,130,2013-02-02 14:16:00
5:36 AM,41.0,30.2,65,29.20,10.0,ESE,13.8,23.0,N/A,,Mostly Cloudy,120,2013-02-02 14:36:00
5:56 AM,39.2,30.2,70,29.20,10.0,SSE,11.5,16.1,N/A,,Mostly Cloudy,150,2013-02-02 14:56:00
6:16 AM,41.0,30.2,65,29.19,10.0,ESE,12.7,18.4,N/A,,Overcast,120,2013-02-02 15:16:00
6:36 AM,39.2,30.2,70,29.19,10.0,SE,9.2,-,N/A,,Mostly Cloudy,140,2013-02-02 15:36:00
6:56 AM,39.2,30.2,70,29.17,10.0,SE,5.8,-,N/A,,Mostly Cloudy,140,2013-02-02 15:56:00
7:16 AM,42.8,30.2,61,29.17,10.0,ESE,5.8,-,N/A,,Mostly Cloudy,120,2013-02-02 16:16:00
7:36 AM,42.8,32.0,66,29.16,10.0,SE,11.5,25.3,N/A,,Overcast,140,2013-02-02 16:36:00
7:56 AM,39.2,30.2,70,29.16,10.0,ESE,3.5,-,N/A,,Mostly Cloudy,120,2013-02-02 16:56:00
8:16 AM,39.2,30.2,70,29.15,10.0,Calm,Calm,-,N/A,,Overcast,0,2013-02-02 17:16:00
8:36 AM,39.2,30.2,70,29.14,10.0,SE,10.4,-,N/A,,Mostly Cloudy,140,2013-02-02 17:36:00
8:56 AM,39.2,30.2,70,29.14,10.0,SE,6.9,-,N/A,,Partly Cloudy,130,2013-02-02 17:56:00
9:16 AM,41.0,30.2,65,29.13,10.0,ESE,11.5,-,N/A,,Partly Cloudy,120,2013-02-02 18:16:00
9:36 AM,41.0,30.2,65,29.13,10.0,East,10.4,-,N/A,,Scattered Clouds,90,2013-02-02 18:36:00
9:56 AM,42.8,30.2,61,29.13,10.0,SSE,5.8,-,N/A,,Mostly Cloudy,150,2013-02-02 18:56:00
10:16 AM,41.0,30.2,65,29.13,10.0,East,9.2,-,N/A,,Overcast,90,2013-02-02 19:16:00
10:36 AM,42.8,30.2,61,29.13,10.0,ESE,3.5,17.3,N/A,,Overcast,120,2013-02-02 19:36:00
10:56 AM,42.8,30.2,61,29.12,10.0,East,9.2,-,N/A,,Overcast,80,2013-02-02 19:56:00
11:16 AM,42.8,28.4,57,29.12,10.0,SE,8.1,-,N/A,,Overcast,130,2013-02-02 20:16:00
11:36 AM,41.0,30.2,65,29.11,10.0,East,8.1,-,N/A,,Overcast,80,2013-02-02 20:36:00
11:56 AM,42.8,30.2,61,29.11,10.0,East,13.8,20.7,N/A,,Overcast,80,2013-02-02 20:56:00
12:16 PM,42.8,28.4,57,29.11,10.0,ENE,11.5,-,N/A,,Overcast,60,2013-02-02 21:16:00
12:36 PM,42.8,28.4,57,29.10,10.0,ENE,11.5,-,N/A,,Overcast,70,2013-02-02 21:36:00
12:56 PM,42.8,28.4,57,29.09,10.0,ESE,12.7,-,N/A,,Overcast,110,2013-02-02 21:56:00
1:16 PM,42.8,28.4,57,29.08,10.0,East,17.3,23.0,N/A,,Overcast,90,2013-02-02 22:16:00
1:36 PM,41.0,28.4,61,29.08,10.0,ENE,17.3,23.0,N/A,,Mostly Cloudy,70,2013-02-02 22:36:00
1:56 PM,39.2,30.2,70,29.07,10.0,NNE,13.8,-,N/A,,Overcast,30,2013-02-02 22:56:00
2:16 PM,39.2,30.2,70,29.06,10.0,NNE,11.5,-,N/A,,Overcast,30,2013-02-02 23:16:00
2:36 PM,39.2,30.2,70,29.05,10.0,NNE,12.7,-,N/A,,Overcast,30,2013-02-02 23:36:00
2:56 PM,39.2,30.2,70,29.04,10.0,NE,13.8,-,N/A,,Overcast,40,2013-02-02 23:56:00
3:36 PM,39.2,30.2,70,29.03,10.0,NE,11.5,17.3,N/A,,Overcast,40,2013-02-03 00:36:00
3:56 PM,39.2,30.2,70,29.03,10.0,ENE,10.4,-,N/A,,Overcast,60,2013-02-03 00:56:00
4:16 PM,39.2,30.2,70,29.02,10.0,ENE,10.4,-,N/A,,Overcast,70,2013-02-03 01:16:00
4:36 PM,39.2,32.0,75,29.02,10.0,ENE,10.4,-,N/A,,Overcast,60,2013-02-03 01:36:00
4:56 PM,39.2,30.2,70,29.01,10.0,ENE,12.7,17.3,N/A,,Overcast,70,2013-02-03 01:56:00
5:16 PM,39.2,30.2,70,29.00,10.0,East,17.3,-,N/A,,Overcast,80,2013-02-03 02:16:00
5:36 PM,37.4,30.2,75,29.00,10.0,NE,10.4,-,N/A,,Overcast,40,2013-02-03 02:36:00
5:56 PM,37.4,30.2,75,28.99,10.0,NE,11.5,-,N/A,,Overcast,50,2013-02-03 02:56:00
6:16 PM,37.4,30.2,75,28.99,10.0,NE,10.4,-,N/A,,Overcast,40,2013-02-03 03:16:00
6:36 PM,37.4,30.2,75,28.98,10.0,NNE,8.1,-,N/A,,Mostly Cloudy,30,2013-02-03 03:36:00
6:56 PM,35.6,28.4,75,28.98,10.0,NNE,8.1,-,N/A,,Overcast,30,2013-02-03 03:56:00
7:16 PM,35.6,30.2,81,28.97,10.0,NE,5.8,-,N/A,,Overcast,40,2013-02-03 04:16:00
7:36 PM,35.6,30.2,81,28.97,10.0,NE,10.4,-,N/A,,Overcast,40,2013-02-03 04:36:00
7:56 PM,37.4,30.2,75,28.96,10.0,NE,10.4,-,N/A,,Overcast,40,2013-02-03 04:56:00
8:16 PM,37.4,30.2,75,28.96,10.0,NE,10.4,-,N/A,,Overcast,40,2013-02-03 05:16:00
8:36 PM,37.4,32.0,81,28.96,10.0,NE,15.0,-,N/A,,Overcast,50,2013-02-03 05:36:00
8:56 PM,37.4,30.2,75,28.96,10.0,ENE,16.1,-,N/A,,Overcast,60,2013-02-03 05:56:00
9:16 PM,37.4,30.2,75,28.95,10.0,ENE,16.1,-,N/A,,Overcast,60,2013-02-03 06:16:00
9:36 PM,37.4,30.2,75,28.95,10.0,ENE,12.7,-,N/A,,Overcast,60,2013-02-03 06:36:00
9:56 PM,37.4,30.2,75,28.94,10.0,ENE,13.8,-,N/A,,Overcast,60,2013-02-03 06:56:00
10:16 PM,37.4,30.2,75,28.93,10.0,ENE,12.7,-,N/A,,Overcast,60,2013-02-03 07:16:00
10:36 PM,37.4,30.2,75,28.93,10.0,ENE,12.7,-,N/A,,Overcast,60,2013-02-03 07:36:00
10:56 PM,37.4,30.2,75,28.94,10.0,ENE,12.7,-,N/A,,Overcast,70,2013-02-03 07:56:00
11:16 PM,37.4,30.2,75,28.94,10.0,ENE,11.5,-,N/A,,Overcast,60,2013-02-03 08:16:00
11:36 PM,37.4,30.2,75,28.93,10.0,NE,11.5,-,N/A,,Overcast,50,2013-02-03 08:36:00
11:56 PM,37.4,30.2,75,28.93,10.0,NNE,9.2,-,N/A,,Overcast,30,2013-02-03 08:56:00